Time;durP1;ratioP1;P1;durP2;ratioP2;P2;SDS_P1;SDS_P2;PMS_P1;PMS_P2;Temp;Humidity;BMP_temperature;BMP_pressure;BME280_temperature;BME280_humidity;BME280_pressure;Samples;Min_cycle;Max_cycle;Signal;HPM_P1;HPM_P2
2023/10/22 00:00:25;;;;;;;24.30;13.40;;;;;;;12.63;89.40;98404.43;102397;1265;3427591;-22
2023/10/22 00:10:31;;;;;;;28.50;16.20;;;;;;;13.39;84.03;98426.07;102703;1290;600154;-21
2023/10/22 00:12:59;;;;;;;34.10;18.30;;;;;;;13.11;84.28;98418.09;104840;1267;61119;-20
2023/10/22 00:15:27;;;;;;;29.30;19.40;;;;;;;12.91;84.88;98424.49;104892;1267;61132;-21
2023/10/22 00:25:36;;;;;;;26.70;16.60;;;;;;;13.95;83.23;98423.44;102670;1294;600196;-21
2023/10/22 00:28:03;;;;;;;26.50;17.10;;;;;;;13.76;83.04;98422.95;104872;1267;61149;-21
2023/10/22 00:30:31;;;;;;;30.10;18.50;;;;;;;13.51;83.26;98425.00;104818;1272;61199;-20
2023/10/22 00:40:41;;;;;;;30.30;16.20;;;;;;;14.21;82.84;98412.88;102655;1292;599978;-21
2023/10/22 00:43:09;;;;;;;26.10;15.50;;;;;;;14.24;81.99;98417.75;104855;1269;61306;-21
2023/10/22 00:45:37;;;;;;;25.80;16.60;;;;;;;14.05;81.72;98415.75;104821;1271;61181;-21
2023/10/22 00:48:06;;;;;;;30.10;17.80;;;;;;;13.79;82.18;98414.33;104791;1266;72221;-21
2023/10/22 00:50:34;;;;;;;28.80;18.10;;;;;;;13.51;82.60;98415.97;104819;1264;73158;-22
2023/10/22 01:00:40;;;;;;;29.00;16.30;;;;;;;14.10;81.96;98397.90;102758;1294;600313;-21
2023/10/22 01:03:08;;;;;;;24.20;15.10;;;;;;;13.84;81.97;98390.38;105188;1263;61071;-21
2023/10/22 01:13:18;;;;;;;20.40;12.00;;;;;;;12.88;85.40;98399.13;102591;1295;600165;-20
2023/10/22 01:23:25;;;;;;;26.90;15.50;;;;;;;13.67;82.90;98382.23;102686;1293;600062;-20
2023/10/22 01:25:53;;;;;;;29.00;16.90;;;;;;;13.37;83.59;98385.31;105092;1269;61131;-20
2023/10/22 01:28:20;;;;;;;21.80;12.20;;;;;;;13.12;84.44;98389.12;104796;1265;61145;-20
2023/10/22 01:30:48;;;;;;;20.60;12.60;;;;;;;13.40;85.19;98394.61;104912;1269;72315;-21
2023/10/22 01:33:16;;;;;;;24.20;14.30;;;;;;;13.82;83.57;98396.21;104835;1270;74260;-21
2023/10/22 01:35:44;;;;;;;21.70;14.70;;;;;;;13.80;82.92;98396.17;104810;1267;71417;-21
2023/10/22 01:38:12;;;;;;;25.50;15.70;;;;;;;13.56;82.78;98391.73;102763;1264;3088349;-20
2023/10/22 01:48:21;;;;;;;18.30;10.50;;;;;;;12.64;86.05;98380.30;102651;1293;599491;-21
2023/10/22 01:50:49;;;;;;;16.60;10.60;;;;;;;13.18;86.07;98379.76;105099;1269;61161;-21
2023/10/22 01:53:17;;;;;;;20.80;13.40;;;;;;;13.70;83.88;98374.45;104868;1269;61115;-21
2023/10/22 01:55:45;;;;;;;22.90;13.50;;;;;;;13.67;83.05;98370.55;105032;1267;70947;-21
2023/10/22 01:58:12;;;;;;;21.40;13.50;;;;;;;13.42;83.15;98370.73;104882;1267;74297;-20
2023/10/22 02:08:20;;;;;;;17.60;10.00;;;;;;;12.46;86.80;98369.59;102736;1289;600083;-21
2023/10/22 02:10:48;;;;;;;18.30;11.20;;;;;;;12.95;86.58;98370.42;104989;1265;61069;-21
2023/10/22 02:13:17;;;;;;;20.70;12.30;;;;;;;13.35;85.42;98368.39;104917;1265;61122;-21
2023/10/22 02:15:45;;;;;;;21.70;13.10;;;;;;;13.28;84.50;98375.21;104927;1267;70629;-21
2023/10/22 02:18:12;;;;;;;22.30;14.30;;;;;;;13.03;85.21;98376.23;104835;1270;74441;-21
2023/10/22 02:20:40;;;;;;;21.10;14.40;;;;;;;12.78;86.40;98379.34;104962;1267;71472;-21
2023/10/22 02:23:08;;;;;;;23.90;10.90;;;;;;;12.56;87.17;98376.77;102767;1267;3251393;-20
2023/10/22 02:33:17;;;;;;;22.20;13.20;;;;;;;13.17;83.72;98384.03;102646;1293;600093;-21
2023/10/22 02:35:45;;;;;;;21.10;13.40;;;;;;;12.85;84.21;98382.90;105052;1266;61158;-21
2023/10/22 02:45:35;;;;;;;17.50;10.30;;;;;;;13.40;84.57;98370.22;102633;1292;601386;-21
2023/10/22 02:55:44;;;;;;;15.50;10.70;;;;;;;12.74;85.07;98374.32;102656;1292;600179;-21
2023/10/22 02:58:12;;;;;;;13.50;8.00;;;;;;;12.46;85.91;98378.80;104845;1269;61122;-21
2023/10/22 03:00:40;;;;;;;12.20;7.60;;;;;;;12.84;85.97;98382.48;104797;1267;61065;-21
2023/10/22 03:03:08;;;;;;;13.60;8.80;;;;;;;13.29;84.68;98379.31;105064;1269;72211;-21
2023/10/22 03:05:36;;;;;;;16.90;9.70;;;;;;;13.28;83.65;98375.02;105091;1266;73031;-20
2023/10/22 03:08:04;;;;;;;13.90;9.10;;;;;;;13.05;83.51;98367.66;105071;1269;72649;-21
2023/10/22 03:10:36;;;;;;;15.70;10.30;;;;;;;12.77;84.31;98367.87;102812;1266;3243866;-21
2023/10/22 03:13:04;;;;;;;14.30;9.50;;;;;;;12.48;85.08;98367.84;104807;1264;61109;-20
2023/10/22 03:15:33;;;;;;;10.40;6.70;;;;;;;12.26;86.02;98360.42;104894;1265;70804;-21
2023/10/22 03:18:01;;;;;;;10.20;6.80;;;;;;;12.68;86.29;98362.49;105053;1269;73187;-20
2023/10/22 03:20:35;;;;;;;12.70;7.10;;;;;;;13.15;84.65;98358.96;104890;1267;72720;-21
2023/10/22 03:30:42;;;;;;;10.10;6.90;;;;;;;12.47;86.14;98356.98;102653;1293;601020;-20
2023/10/22 03:40:58;;;;;;;16.60;9.80;;;;;;;12.94;84.25;98341.94;102734;1290;600231;-20
2023/10/22 03:43:28;;;;;;;12.10;8.60;;;;;;;12.53;85.59;98333.89;104791;1271;61129;-20
2023/10/22 03:52:48;;;;;;;11.70;7.30;;;;;;;13.14;83.97;98334.33;102678;1295;600159;-22
2023/10/22 03:55:15;;;;;;;11.50;8.00;;;;;;;12.88;84.09;98333.79;108714;1267;58939;-23
2023/10/22 03:57:43;;;;;;;14.00;7.50;;;;;;;12.62;84.94;98333.48;109113;1257;58857;-23
2023/10/22 04:00:11;;;;;;;12.20;7.80;;;;;;;12.38;85.48;98330.67;109094;1257;72307;-24
2023/10/22 04:02:38;;;;;;;8.30;5.70;;;;;;;12.19;86.09;98330.33;109076;1257;74273;-23
2023/10/22 04:05:08;;;;;;;11.70;6.30;;;;;;;12.61;86.34;98329.26;109102;1257;71440;-21
2023/10/22 04:07:35;;;;;;;11.90;6.80;;;;;;;13.09;84.80;98319.14;106897;1257;3096593;-21
2023/10/22 04:10:09;;;;;;;9.40;7.00;;;;;;;13.09;83.67;98317.55;109331;1256;58761;-21
2023/10/22 04:12:37;;;;;;;11.50;7.80;;;;;;;12.81;83.92;98312.73;109093;1256;72243;-20
2023/10/22 04:15:05;;;;;;;12.10;8.20;;;;;;;12.47;85.47;98306.98;109347;1255;74267;-21
2023/10/22 04:17:33;;;;;;;14.80;7.70;;;;;;;12.20;86.26;98310.18;109075;1256;71347;-20
2023/10/22 04:20:01;;;;;;;8.00;5.40;;;;;;;12.04;86.75;98310.23;109099;1260;61719;-22
2023/10/22 04:22:28;;;;;;;11.90;7.10;;;;;;;12.46;86.59;98312.27;109257;1255;58708;-23
2023/10/22 04:24:56;;;;;;;11.60;8.40;;;;;;;12.94;85.01;98310.45;109124;1255;73107;-23
2023/10/22 04:27:23;;;;;;;10.90;7.20;;;;;;;12.96;84.08;98311.24;109145;1257;73176;-23
2023/10/22 04:29:52;;;;;;;10.80;7.30;;;;;;;12.77;84.17;98308.63;109098;1256;71376;-23
2023/10/22 04:32:20;;;;;;;15.50;9.30;;;;;;;12.49;84.47;98309.25;109117;1256;60042;-23
2023/10/22 04:34:48;;;;;;;14.50;9.20;;;;;;;12.17;85.34;98305.23;109171;1256;58808;-23
2023/10/22 04:37:17;;;;;;;9.80;7.40;;;;;;;11.96;86.22;98309.20;109116;1257;71748;-23
2023/10/22 04:39:44;;;;;;;9.20;6.00;;;;;;;12.40;86.19;98313.39;109118;1257;74523;-23
2023/10/22 04:42:12;;;;;;;9.10;6.70;;;;;;;12.87;85.01;98316.35;109216;1257;71408;-21
2023/10/22 04:44:42;;;;;;;9.50;6.40;;;;;;;12.88;83.76;98325.31;109226;1257;59133;-21
2023/10/22 04:47:09;;;;;;;13.80;7.30;;;;;;;12.67;83.69;98320.67;109170;1257;60020;-21
2023/10/22 04:49:37;;;;;;;10.80;6.50;;;;;;;12.41;84.41;98323.98;109267;1256;73138;-21
2023/10/22 04:52:09;;;;;;;10.70;7.30;;;;;;;12.14;84.88;98329.21;109114;1258;73078;-21
2023/10/22 04:54:39;;;;;;;9.30;5.00;;;;;;;11.96;85.73;98335.88;109270;1256;72711;-20
2023/10/22 04:57:06;;;;;;;9.60;5.10;;;;;;;12.41;85.66;98336.59;109223;1256;58859;-21
2023/10/22 04:59:34;;;;;;;10.40;6.20;;;;;;;12.91;84.42;98331.80;109140;1256;60190;-21
2023/10/22 05:02:01;;;;;;;9.80;6.20;;;;;;;12.95;83.41;98335.73;109299;1256;71731;-21
2023/10/22 05:04:29;;;;;;;7.50;5.90;;;;;;;12.77;83.69;98336.19;109287;1256;74279;-20
2023/10/22 05:06:57;;;;;;;10.40;6.00;;;;;;;12.52;83.92;98332.27;109098;1257;71369;-21
2023/10/22 05:09:24;;;;;;;9.70;6.40;;;;;;;12.22;84.27;98336.42;109116;1256;60073;-20
2023/10/22 05:11:52;;;;;;;5.50;4.30;;;;;;;12.02;84.90;98341.34;109149;1256;59135;-21
2023/10/22 05:14:20;;;;;;;5.20;3.80;;;;;;;12.44;85.34;98342.45;109053;1257;73212;-21
2023/10/22 05:16:47;;;;;;;7.00;5.20;;;;;;;12.93;83.93;98342.63;109179;1257;74483;-21
2023/10/22 05:19:15;;;;;;;6.60;4.90;;;;;;;12.94;83.36;98345.38;109098;1257;73117;-21
2023/10/22 05:21:42;;;;;;;6.60;5.50;;;;;;;12.76;83.40;98345.89;109086;1260;60099;-21
2023/10/22 05:24:10;;;;;;;8.40;5.90;;;;;;;12.50;84.23;98341.48;109113;1257;58656;-20
2023/10/22 05:26:37;;;;;;;9.80;6.80;;;;;;;12.28;85.09;98338.33;109130;1257;71833;-21
2023/10/22 05:29:05;;;;;;;8.70;4.60;;;;;;;12.12;86.13;98335.71;109126;1257;74323;-20
2023/10/22 05:31:32;;;;;;;7.50;4.60;;;;;;;12.57;86.39;98334.73;109127;1257;72639;-21
2023/10/22 05:34:00;;;;;;;7.60;5.50;;;;;;;12.96;85.30;98335.35;109109;1257;60113;-21
2023/10/22 05:36:27;;;;;;;8.30;5.70;;;;;;;12.96;84.48;98332.71;109253;1256;60011;-21
2023/10/22 05:38:55;;;;;;;7.40;5.60;;;;;;;12.80;84.86;98335.52;109176;1257;71449;-20
2023/10/22 05:41:23;;;;;;;10.70;6.30;;;;;;;12.62;85.29;98334.23;109140;1257;73176;-21
2023/10/22 05:43:56;;;;;;;6.60;4.40;;;;;;;12.47;86.14;98333.40;109120;1255;71446;-21
2023/10/22 05:46:23;;;;;;;7.90;4.70;;;;;;;12.94;86.23;98336.94;109125;1257;58769;-21
2023/10/22 05:48:51;;;;;;;7.20;5.80;;;;;;;13.36;84.84;98329.25;109144;1256;59072;-21
2023/10/22 05:51:19;;;;;;;9.40;5.60;;;;;;;13.41;84.21;98332.91;109138;1257;72517;-21
2023/10/22 05:53:46;;;;;;;8.50;6.00;;;;;;;13.27;84.32;98328.60;109247;1257;74955;-21
2023/10/22 05:56:13;;;;;;;8.00;6.60;;;;;;;13.08;84.72;98329.90;109240;1257;72653;-20
2023/10/22 05:58:41;;;;;;;6.00;4.50;;;;;;;12.92;85.92;98327.83;109143;1257;61683;-21
2023/10/22 06:01:09;;;;;;;6.30;5.10;;;;;;;13.36;85.92;98319.15;109174;1256;58738;-21
2023/10/22 06:03:37;;;;;;;9.90;5.70;;;;;;;13.82;84.61;98322.20;109154;1257;73025;-20
2023/10/22 06:06:04;;;;;;;7.30;6.00;;;;;;;13.91;83.96;98316.95;109134;1257;74293;-22
2023/10/22 06:08:32;;;;;;;11.50;6.40;;;;;;;13.78;83.63;98312.80;109149;1255;71447;-23
2023/10/22 06:11:02;;;;;;;7.80;6.60;;;;;;;13.62;84.12;98309.63;109148;1257;60045;-23
2023/10/22 06:13:31;;;;;;;8.10;5.10;;;;;;;13.50;84.82;98304.69;109028;1257;60006;-24
2023/10/22 06:15:59;;;;;;;6.50;5.20;;;;;;;13.90;84.91;98298.98;109093;1257;71808;-21
2023/10/22 06:18:26;;;;;;;8.70;6.90;;;;;;;14.27;83.56;98288.07;109126;1257;74330;-20
2023/10/22 06:20:54;;;;;;;10.00;7.30;;;;;;;14.31;83.05;98279.89;109126;1257;71381;-20
2023/10/22 06:23:22;;;;;;;10.00;7.20;;;;;;;14.20;83.05;98277.55;109168;1257;58847;-21
2023/10/22 06:25:49;;;;;;;9.40;8.20;;;;;;;14.03;83.65;98279.38;109139;1256;58790;-21
2023/10/22 06:28:18;;;;;;;9.20;5.70;;;;;;;14.02;84.61;98273.69;109264;1256;73065;-21
2023/10/22 06:30:45;;;;;;;12.40;6.50;;;;;;;14.66;83.93;98278.12;109139;1257;73332;-21
2023/10/22 06:33:13;;;;;;;8.60;6.50;;;;;;;15.06;82.02;98284.58;109140;1257;71364;-21
2023/10/22 06:35:40;;;;;;;9.00;7.20;;;;;;;15.11;81.46;98279.13;109212;1256;58827;-21
2023/10/22 06:38:10;;;;;;;10.60;7.10;;;;;;;15.04;81.32;98277.59;109142;1257;59995;-21
2023/10/22 06:40:37;;;;;;;9.30;7.90;;;;;;;14.91;81.46;98276.39;109156;1256;71831;-21
2023/10/22 06:43:05;;;;;;;10.80;6.30;;;;;;;14.83;82.07;98272.23;109117;1256;74296;-21
2023/10/22 06:45:33;;;;;;;10.50;7.80;;;;;;;15.26;81.68;98270.64;109227;1256;72664;-21
2023/10/22 06:48:01;;;;;;;11.70;8.50;;;;;;;15.68;79.96;98265.34;109015;1258;58889;-20
2023/10/22 06:50:29;;;;;;;12.20;8.20;;;;;;;15.74;79.11;98268.27;109247;1256;58828;-21
2023/10/22 06:52:56;;;;;;;10.90;8.50;;;;;;;15.69;79.10;98262.48;109143;1257;72736;-21
2023/10/22 06:55:24;;;;;;;11.80;9.40;;;;;;;15.58;79.36;98261.20;109121;1257;74234;-21
2023/10/22 06:57:51;;;;;;;17.20;9.00;;;;;;;15.50;79.73;98258.43;109155;1257;72664;-21
2023/10/22 07:00:19;;;;;;;9.80;7.40;;;;;;;15.47;80.15;98251.68;109057;1257;61734;-21
2023/10/22 07:02:46;;;;;;;11.40;7.60;;;;;;;16.00;79.40;98255.52;109175;1257;58825;-21
2023/10/22 07:05:14;;;;;;;14.40;8.90;;;;;;;16.50;76.83;98257.81;109256;1256;73036;-21
2023/10/22 07:07:42;;;;;;;12.50;9.60;;;;;;;16.61;75.93;98251.41;109130;1257;73065;-21
2023/10/22 07:10:10;;;;;;;14.30;9.90;;;;;;;16.55;75.67;98250.69;109200;1256;72655;-21
2023/10/22 07:12:37;;;;;;;13.70;10.00;;;;;;;16.48;76.04;98247.25;109110;1257;60027;-21
2023/10/22 07:15:06;;;;;;;13.90;9.90;;;;;;;16.47;76.85;98245.48;109149;1257;59989;-21
2023/10/22 07:17:33;;;;;;;11.50;9.70;;;;;;;16.44;76.03;98245.45;108982;1257;71830;-20
2023/10/22 07:20:01;;;;;;;12.80;9.40;;;;;;;16.39;76.28;98233.98;109151;1257;74296;-21
2023/10/22 07:22:28;;;;;;;15.70;9.10;;;;;;;16.46;76.31;98228.01;109153;1257;70669;-21
2023/10/22 07:24:56;;;;;;;13.80;9.30;;;;;;;16.93;74.63;98231.39;109024;1257;58823;-21
2023/10/22 07:27:23;;;;;;;13.10;9.60;;;;;;;17.20;73.86;98238.63;109153;1257;60159;-21
2023/10/22 07:29:51;;;;;;;15.40;10.30;;;;;;;17.28;73.37;98239.02;109036;1258;73096;-21
2023/10/22 07:32:18;;;;;;;10.70;9.00;;;;;;;17.27;73.29;98240.15;109166;1257;74305;-21
2023/10/22 07:34:46;;;;;;;15.20;10.30;;;;;;;17.29;73.36;98239.80;109078;1259;70290;-21
2023/10/22 07:37:14;;;;;;;14.90;9.80;;;;;;;17.30;73.00;98238.36;109143;1257;60032;-21
2023/10/22 07:39:41;;;;;;;13.70;9.90;;;;;;;17.34;72.73;98231.77;109076;1257;58765;-21
2023/10/22 07:42:09;;;;;;;13.80;10.00;;;;;;;17.38;72.46;98229.13;109130;1257;71867;-21
2023/10/22 07:44:36;;;;;;;14.10;9.90;;;;;;;17.42;71.77;98223.53;109122;1257;73092;-21
2023/10/22 07:47:04;;;;;;;15.20;9.90;;;;;;;17.45;72.07;98224.88;109018;1257;72760;-21
2023/10/22 07:49:32;;;;;;;14.70;10.10;;;;;;;17.49;71.96;98219.33;109109;1257;58807;-21
2023/10/22 07:51:59;;;;;;;13.30;10.50;;;;;;;17.57;71.92;98221.59;109110;1257;58842;-21
2023/10/22 07:54:31;;;;;;;14.60;10.20;;;;;;;17.65;71.65;98217.59;109105;1257;73129;-21
2023/10/22 07:56:58;;;;;;;16.70;10.50;;;;;;;17.72;71.52;98210.86;109084;1256;74425;-21
2023/10/22 07:59:26;;;;;;;20.50;10.90;;;;;;;17.83;71.14;98212.21;109135;1257;71366;-21
2023/10/22 08:01:53;;;;;;;15.10;11.60;;;;;;;18.01;71.33;98219.02;109042;1257;58821;-21
2023/10/22 08:04:21;;;;;;;17.00;11.30;;;;;;;18.21;70.16;98213.54;109137;1257;58722;-25
2023/10/22 08:06:48;;;;;;;18.70;11.00;;;;;;;18.29;69.32;98211.44;109104;1257;73898;-21
2023/10/22 08:09:16;;;;;;;15.10;9.80;;;;;;;18.41;69.25;98204.64;109109;1257;73211;-21
2023/10/22 08:11:43;;;;;;;14.00;10.20;;;;;;;18.61;69.22;98203.50;109089;1257;72712;-21
2023/10/22 08:14:11;;;;;;;17.90;9.80;;;;;;;18.81;67.88;98196.25;108988;1257;60049;-21
2023/10/22 08:16:39;;;;;;;13.70;9.00;;;;;;;18.93;67.66;98198.55;109079;1257;60005;-21
2023/10/22 08:19:06;;;;;;;15.50;9.10;;;;;;;19.09;67.44;98199.21;109100;1257;73849;-21
2023/10/22 08:21:34;;;;;;;13.60;8.90;;;;;;;19.16;66.58;98205.84;109085;1257;73199;-21
2023/10/22 08:24:02;;;;;;;16.20;10.00;;;;;;;19.21;66.38;98222.44;109075;1257;72659;-21
2023/10/22 08:26:29;;;;;;;14.70;8.80;;;;;;;19.28;66.09;98215.17;109100;1257;58810;-21
2023/10/22 08:28:57;;;;;;;14.90;9.70;;;;;;;19.38;65.81;98195.09;109072;1257;58819;-21
2023/10/22 08:31:27;;;;;;;20.20;10.90;;;;;;;19.57;65.36;98193.73;109221;1255;72647;-21
2023/10/22 08:33:55;;;;;;;16.80;9.60;;;;;;;19.85;64.25;98194.89;109130;1257;73348;-21
2023/10/22 08:36:22;;;;;;;12.10;9.50;;;;;;;20.15;63.71;98194.19;109216;1255;71117;-21
2023/10/22 08:38:50;;;;;;;14.50;9.40;;;;;;;20.48;63.05;98197.55;109157;1256;58904;-21
2023/10/22 08:41:21;;;;;;;16.70;9.50;;;;;;;20.67;61.14;98193.33;109247;1255;58837;-21
2023/10/22 08:43:49;;;;;;;12.90;8.10;;;;;;;20.68;60.94;98184.72;109095;1256;73914;-21
2023/10/22 08:46:17;;;;;;;16.70;8.70;;;;;;;20.84;61.06;98181.14;109150;1257;74289;-21
2023/10/22 08:48:44;;;;;;;14.50;8.20;;;;;;;21.09;60.11;98180.64;109174;1255;71776;-21
2023/10/22 08:51:14;;;;;;;12.20;7.70;;;;;;;21.32;59.50;98178.17;109184;1256;58872;-21
2023/10/22 08:53:41;;;;;;;17.10;7.50;;;;;;;21.35;58.37;98179.09;109250;1255;59234;-21
2023/10/22 08:56:09;;;;;;;14.80;8.30;;;;;;;21.16;58.65;98175.41;109234;1256;73831;-21
2023/10/22 08:58:36;;;;;;;16.10;8.40;;;;;;;20.95;58.97;98171.05;109277;1255;74400;-21
2023/10/22 09:01:04;;;;;;;12.50;7.50;;;;;;;20.83;59.61;98168.52;109194;1256;72295;-21
2023/10/22 09:03:32;;;;;;;12.40;6.70;;;;;;;20.72;60.07;98160.75;109215;1255;58825;-21
2023/10/22 09:06:01;;;;;;;13.60;7.10;;;;;;;20.54;60.01;98156.45;109284;1255;60193;-21
2023/10/22 09:08:45;;;;;;;14.60;8.20;;;;;;;20.36;60.55;98157.95;109241;1256;72589;-23
2023/10/22 09:11:14;;;;;;;13.40;7.90;;;;;;;20.18;60.73;98150.05;109044;1256;73204;-21
2023/10/22 09:13:45;;;;;;;10.70;7.10;;;;;;;20.02;61.19;98148.94;108992;1257;71749;-21
2023/10/22 09:16:32;;;;;;;18.30;7.70;;;;;;;19.85;61.62;98141.77;109054;1256;58856;-21
2023/10/22 09:19:01;;;;;;;14.70;7.40;;;;;;;19.74;62.42;98137.69;109031;1257;60238;-21
2023/10/22 09:21:42;;;;;;;16.20;7.60;;;;;;;19.66;62.67;98133.85;109103;1257;72643;-21
2023/10/22 09:24:11;;;;;;;15.10;7.60;;;;;;;19.57;62.42;98121.92;108879;1257;74348;-21
2023/10/22 09:26:47;;;;;;;14.20;7.60;;;;;;;19.52;62.74;98125.30;108998;1257;71030;-21
2023/10/22 09:29:16;;;;;;;13.30;7.20;;;;;;;19.53;62.93;98118.31;109078;1256;60102;-21
2023/10/22 09:31:53;;;;;;;10.60;6.70;;;;;;;19.59;63.15;98120.95;109093;1257;58852;-21
2023/10/22 09:34:28;;;;;;;14.90;6.50;;;;;;;19.78;62.84;98125.05;109017;1257;73839;-21
2023/10/22 09:36:56;;;;;;;13.20;7.00;;;;;;;19.90;62.68;98142.34;108970;1257;74568;-21
2023/10/22 09:39:40;;;;;;;20.60;6.90;;;;;;;19.98;62.31;98149.28;109062;1256;71498;-21
2023/10/22 09:42:08;;;;;;;16.40;7.30;;;;;;;20.00;61.90;98147.65;109128;1256;60038;-21
2023/10/22 09:44:40;;;;;;;9.40;7.20;;;;;;;20.01;62.34;98143.05;109123;1256;59432;-21
2023/10/22 09:47:08;;;;;;;12.00;6.10;;;;;;;20.00;62.31;98133.45;109035;1257;72642;-22
2023/10/22 09:49:38;;;;;;;22.80;7.70;;;;;;;19.92;62.44;98138.98;109095;1257;73071;-21
2023/10/22 09:52:06;;;;;;;14.00;8.10;;;;;;;19.78;62.51;98145.77;109086;1257;72710;-21
2023/10/22 09:54:39;;;;;;;13.10;7.30;;;;;;;19.60;63.27;98129.11;109037;1257;58886;-21
2023/10/22 09:57:09;;;;;;;12.90;7.20;;;;;;;19.53;63.54;98120.42;109096;1257;58804;-21
2023/10/22 09:59:36;;;;;;;12.50;7.10;;;;;;;19.48;64.21;98118.96;109115;1257;73979;-21
2023/10/22 10:02:04;;;;;;;12.10;7.20;;;;;;;19.49;64.15;98111.58;109141;1257;74379;-21
2023/10/22 10:04:35;;;;;;;11.50;7.10;;;;;;;19.51;64.40;98108.48;109055;1257;72683;-21
2023/10/22 10:07:03;;;;;;;13.20;7.80;;;;;;;19.55;64.18;98100.23;109100;1257;58791;-21
2023/10/22 10:09:31;;;;;;;14.90;7.70;;;;;;;19.58;63.86;98098.04;109108;1257;58667;-21
2023/10/22 10:12:01;;;;;;;11.90;7.90;;;;;;;19.60;64.10;98097.79;109103;1257;73847;-21
2023/10/22 10:14:44;;;;;;;12.30;7.30;;;;;;;19.64;64.20;98094.13;109016;1257;74507;-21
2023/10/22 10:17:16;;;;;;;12.80;7.20;;;;;;;19.70;64.25;98086.83;108999;1257;72731;-21
2023/10/22 10:19:47;;;;;;;16.90;7.70;;;;;;;19.74;64.15;98080.73;109046;1257;59227;-21
2023/10/22 10:22:41;;;;;;;14.50;7.40;;;;;;;19.73;63.53;98077.77;109012;1257;58824;-21
2023/10/22 10:25:32;;;;;;;12.10;7.20;;;;;;;19.69;63.65;98077.52;108950;1257;73882;-21
2023/10/22 10:28:07;;;;;;;12.40;7.50;;;;;;;19.70;64.01;98071.67;109101;1257;74322;-21
2023/10/22 10:30:38;;;;;;;14.80;6.60;;;;;;;19.71;64.15;98063.18;109011;1257;72802;-21
2023/10/22 10:33:14;;;;;;;12.10;7.50;;;;;;;19.74;64.04;98059.11;109098;1257;60042;-21
2023/10/22 10:35:49;;;;;;;13.90;7.30;;;;;;;19.79;63.80;98054.10;109134;1257;60006;-21
2023/10/22 10:38:22;;;;;;;18.60;7.90;;;;;;;19.85;63.89;98044.33;109049;1257;73060;-21
2023/10/22 10:40:55;;;;;;;16.30;7.70;;;;;;;19.90;63.84;98044.81;108997;1257;74592;-21
2023/10/22 10:44:02;;;;;;;12.20;7.10;;;;;;;19.98;63.42;98047.82;108988;1257;72754;-21
2023/10/22 10:46:33;;;;;;;15.30;6.70;;;;;;;20.07;63.35;98044.07;109089;1261;60050;-21
2023/10/22 10:49:02;;;;;;;12.40;7.10;;;;;;;20.23;63.18;98036.64;109035;1257;58819;-21
2023/10/22 10:51:33;;;;;;;14.00;7.40;;;;;;;20.49;62.69;98032.02;109024;1257;73781;-21
2023/10/22 10:54:21;;;;;;;19.50;7.20;;;;;;;20.73;61.59;98026.45;109121;1257;73055;-21
2023/10/22 10:56:58;;;;;;;13.30;7.30;;;;;;;20.81;60.34;98019.80;109006;1257;70537;-21
2023/10/22 10:59:36;;;;;;;11.00;7.30;;;;;;;20.82;60.81;98021.67;109118;1257;60067;-21
2023/10/22 11:02:08;;;;;;;15.90;7.30;;;;;;;20.89;61.00;98023.74;109016;1257;58855;-21
2023/10/22 11:04:39;;;;;;;16.90;7.90;;;;;;;20.87;60.45;98017.08;109030;1257;73853;-21
2023/10/22 11:07:10;;;;;;;12.60;7.30;;;;;;;20.83;60.48;98007.09;109034;1257;73201;-21
2023/10/22 11:09:56;;;;;;;17.10;8.20;;;;;;;20.81;60.58;98010.80;109007;1257;72680;-21
2023/10/22 11:20:10;;;;;;;13.60;8.20;;;;;;;20.74;60.40;98003.46;102715;1290;600023;-22
2023/10/22 11:22:39;;;;;;;15.50;8.60;;;;;;;20.70;60.43;98003.40;104882;1266;61273;-21
2023/10/22 11:25:08;;;;;;;17.20;7.70;;;;;;;20.67;60.50;98003.30;105127;1264;61061;-21
2023/10/22 11:27:37;;;;;;;17.00;8.00;;;;;;;20.62;60.76;98014.32;104782;1264;71250;-21
2023/10/22 11:30:06;;;;;;;16.30;7.70;;;;;;;20.53;60.95;98023.95;104873;1272;73994;-21
2023/10/22 11:32:46;;;;;;;15.50;8.30;;;;;;;20.42;61.15;98025.20;102450;1268;3196032;-22
2023/10/22 11:35:14;;;;;;;16.00;7.50;;;;;;;20.34;61.51;98019.39;105257;1264;61179;-22
2023/10/22 11:43:58;;;;;;;13.40;7.50;;;;;;;20.26;61.63;98025.60;102653;1290;600184;-21
2023/10/22 11:54:07;;;;;;;16.40;8.00;;;;;;;20.23;60.93;98021.34;102669;1293;600196;-21
2023/10/22 11:56:35;;;;;;;21.90;8.50;;;;;;;20.15;60.69;98017.28;105087;1267;61154;-21
2023/10/22 11:59:04;;;;;;;19.30;8.20;;;;;;;20.08;60.59;98014.57;104918;1265;61170;-21
2023/10/22 12:01:32;;;;;;;23.10;8.30;;;;;;;20.16;60.99;98013.70;104847;1267;70347;-22
2023/10/22 12:04:00;;;;;;;14.70;7.80;;;;;;;20.24;60.79;98011.06;104815;1265;72145;-22
2023/10/22 12:14:12;;;;;;;18.70;8.00;;;;;;;20.52;60.21;98010.41;103105;1289;600812;-21
2023/10/22 12:16:40;;;;;;;21.90;8.30;;;;;;;20.57;59.78;98007.00;104773;1267;61704;-21
2023/10/22 12:19:07;;;;;;;20.00;7.70;;;;;;;20.62;60.08;98002.73;104803;1272;61171;-21
2023/10/22 12:21:35;;;;;;;19.00;8.40;;;;;;;20.67;60.25;97999.16;104820;1267;72258;-22
2023/10/22 12:30:51;;;;;;;19.50;9.10;;;;;;;20.78;59.82;97995.77;102704;1295;600033;-21
2023/10/22 12:33:19;;;;;;;23.90;8.20;;;;;;;20.82;59.76;97995.59;104883;1271;61253;-21
2023/10/22 12:35:46;;;;;;;15.90;8.00;;;;;;;20.86;59.78;98000.27;104898;1265;61167;-21
2023/10/22 12:38:14;;;;;;;20.60;8.10;;;;;;;20.92;59.29;97998.35;104864;1270;71567;-21
2023/10/22 12:40:42;;;;;;;17.50;7.60;;;;;;;20.97;59.12;97995.77;104857;1270;73482;-21
2023/10/22 12:43:10;;;;;;;21.30;7.70;;;;;;;21.06;59.09;97996.59;104825;1273;71135;-21
2023/10/22 12:53:17;;;;;;;18.00;7.90;;;;;;;21.21;58.83;97986.48;102647;1292;600275;-21
2023/10/22 12:55:52;;;;;;;21.50;7.80;;;;;;;21.19;58.59;97991.93;104864;1269;61165;-21
2023/10/22 12:58:19;;;;;;;20.00;8.20;;;;;;;21.23;58.45;97989.81;104874;1270;61530;-21
2023/10/22 13:00:50;;;;;;;18.90;7.60;;;;;;;21.21;57.84;97992.35;104795;1267;72230;-21
2023/10/22 13:03:17;;;;;;;17.70;7.20;;;;;;;21.19;57.54;97995.23;104830;1266;73052;-21
2023/10/22 13:13:33;;;;;;;15.50;6.90;;;;;;;21.36;57.15;97999.77;102672;1293;600230;-22
2023/10/22 13:16:01;;;;;;;14.80;7.20;;;;;;;21.33;57.04;98002.48;105032;1270;61145;-23
2023/10/22 13:18:28;;;;;;;19.30;6.80;;;;;;;21.27;56.70;98004.88;105036;1265;61113;-23
2023/10/22 13:20:56;;;;;;;16.90;6.90;;;;;;;21.18;56.46;98005.47;104795;1267;71104;-23
2023/10/22 13:23:24;;;;;;;17.90;6.80;;;;;;;21.20;56.92;98001.52;104857;1267;74288;-22
2023/10/22 13:25:51;;;;;;;20.70;6.70;;;;;;;21.22;56.59;97994.66;105058;1269;72625;-22
2023/10/22 13:28:19;;;;;;;18.30;6.40;;;;;;;21.18;56.03;97991.34;101991;1263;4275755;-22
2023/10/22 13:30:46;;;;;;;13.50;6.30;;;;;;;21.21;56.43;97994.90;105132;1269;61775;-22
2023/10/22 13:33:14;;;;;;;15.00;6.70;;;;;;;21.21;56.60;97995.69;105161;1263;72232;-22
2023/10/22 13:42:12;;;;;;;19.30;7.00;;;;;;;21.61;56.08;97994.06;102601;1292;599496;-21
2023/10/22 13:52:19;;;;;;;20.50;6.50;;;;;;;21.64;55.58;98000.41;102645;1290;599918;-21
2023/10/22 13:54:47;;;;;;;18.80;7.50;;;;;;;21.63;55.39;97998.58;105008;1269;61109;-21
2023/10/22 13:57:14;;;;;;;15.90;6.90;;;;;;;21.60;55.67;97993.63;105069;1269;61059;-21
2023/10/22 13:59:42;;;;;;;17.40;7.00;;;;;;;21.61;55.81;97994.24;104993;1267;70954;-21
2023/10/22 14:09:52;;;;;;;20.40;6.60;;;;;;;21.51;56.01;97989.77;103150;1286;600201;-21
2023/10/22 14:12:19;;;;;;;15.40;6.70;;;;;;;21.46;55.81;97985.27;108685;1267;58911;-22
2023/10/22 14:14:48;;;;;;;19.80;6.50;;;;;;;21.39;55.91;97982.07;108682;1266;58822;-23
2023/10/22 14:17:16;;;;;;;19.30;6.30;;;;;;;21.34;56.43;97984.88;108682;1266;72313;-22
2023/10/22 14:19:44;;;;;;;18.50;5.90;;;;;;;21.30;56.32;97980.29;108600;1265;74369;-22
2023/10/22 14:22:12;;;;;;;19.70;5.70;;;;;;;21.22;56.31;97980.80;108677;1265;71971;-22
2023/10/22 14:24:39;;;;;;;14.10;5.70;;;;;;;21.20;56.62;97983.64;106338;1263;3222981;-22